sensor_id;sensor_type;location;lat;lon;timestamp;P1;durP1;ratioP1;P2;durP2;ratioP2
43998;SDS011;51319;52.162;5.302;2023-07-31T00:00:04;5.70;;;1.85;;
43998;SDS011;51319;52.162;5.302;2023-07-31T00:02:32;2.60;;;2.10;;
43998;SDS011;51319;52.162;5.302;2023-07-31T00:05:00;11.18;;;2.70;;
43998;SDS011;51319;52.162;5.302;2023-07-31T00:07:27;9.32;;;2.90;;
43998;SDS011;51319;52.162;5.302;2023-07-31T00:09:54;3.17;;;2.00;;
43998;SDS011;51319;52.162;5.302;2023-07-31T00:12:22;27.73;;;2.55;;
43998;SDS011;51319;52.162;5.302;2023-07-31T00:14:50;43.50;;;3.28;;
43998;SDS011;51319;52.162;5.302;2023-07-31T00:17:17;18.85;;;3.08;;
43998;SDS011;51319;52.162;5.302;2023-07-31T00:19:44;21.42;;;2.60;;
43998;SDS011;51319;52.162;5.302;2023-07-31T00:22:12;5.47;;;2.28;;
43998;SDS011;51319;52.162;5.302;2023-07-31T00:24:39;9.50;;;2.75;;
43998;SDS011;51319;52.162;5.302;2023-07-31T00:27:06;6.32;;;2.25;;
43998;SDS011;51319;52.162;5.302;2023-07-31T00:29:33;6.97;;;2.28;;
43998;SDS011;51319;52.162;5.302;2023-07-31T00:32:00;4.90;;;2.25;;
43998;SDS011;51319;52.162;5.302;2023-07-31T00:34:27;6.95;;;3.03;;
43998;SDS011;51319;52.162;5.302;2023-07-31T00:36:54;7.97;;;3.80;;
43998;SDS011;51319;52.162;5.302;2023-07-31T00:39:21;6.28;;;3.08;;
43998;SDS011;51319;52.162;5.302;2023-07-31T00:41:48;10.05;;;3.63;;
43998;SDS011;51319;52.162;5.302;2023-07-31T00:44:15;13.68;;;4.55;;
43998;SDS011;51319;52.162;5.302;2023-07-31T00:46:42;9.70;;;4.47;;
43998;SDS011;51319;52.162;5.302;2023-07-31T00:49:10;16.25;;;5.60;;
43998;SDS011;51319;52.162;5.302;2023-07-31T00:51:38;24.13;;;7.30;;
43998;SDS011;51319;52.162;5.302;2023-07-31T00:54:05;39.28;;;9.60;;
43998;SDS011;51319;52.162;5.302;2023-07-31T00:56:33;35.30;;;10.35;;
43998;SDS011;51319;52.162;5.302;2023-07-31T00:59:00;44.25;;;11.02;;
43998;SDS011;51319;52.162;5.302;2023-07-31T01:01:27;29.40;;;8.20;;
43998;SDS011;51319;52.162;5.302;2023-07-31T01:03:54;21.95;;;7.57;;
43998;SDS011;51319;52.162;5.302;2023-07-31T01:09:11;23.15;;;7.70;;
43998;SDS011;51319;52.162;5.302;2023-07-31T01:11:52;31.00;;;9.10;;
43998;SDS011;51319;52.162;5.302;2023-07-31T01:14:22;23.77;;;7.40;;
43998;SDS011;51319;52.162;5.302;2023-07-31T01:16:52;26.95;;;7.93;;
43998;SDS011;51319;52.162;5.302;2023-07-31T01:19:21;24.25;;;7.40;;
43998;SDS011;51319;52.162;5.302;2023-07-31T01:27:14;20.70;;;5.90;;
43998;SDS011;51319;52.162;5.302;2023-07-31T01:29:47;17.77;;;5.35;;
43998;SDS011;51319;52.162;5.302;2023-07-31T01:32:22;19.38;;;5.75;;
43998;SDS011;51319;52.162;5.302;2023-07-31T01:34:50;15.57;;;4.40;;
43998;SDS011;51319;52.162;5.302;2023-07-31T01:37:18;14.55;;;4.75;;
43998;SDS011;51319;52.162;5.302;2023-07-31T01:39:47;13.73;;;4.00;;
43998;SDS011;51319;52.162;5.302;2023-07-31T01:42:13;17.55;;;4.38;;
43998;SDS011;51319;52.162;5.302;2023-07-31T01:44:40;23.35;;;6.90;;
43998;SDS011;51319;52.162;5.302;2023-07-31T01:47:07;27.77;;;6.47;;
43998;SDS011;51319;52.162;5.302;2023-07-31T01:49:34;27.08;;;6.70;;
43998;SDS011;51319;52.162;5.302;2023-07-31T01:52:01;29.63;;;7.55;;
43998;SDS011;51319;52.162;5.302;2023-07-31T01:54:28;60.92;;;11.40;;
43998;SDS011;51319;52.162;5.302;2023-07-31T01:56:55;45.75;;;11.65;;
43998;SDS011;51319;52.162;5.302;2023-07-31T01:59:22;64.35;;;13.88;;
43998;SDS011;51319;52.162;5.302;2023-07-31T02:01:50;54.15;;;12.55;;
43998;SDS011;51319;52.162;5.302;2023-07-31T02:04:21;56.78;;;12.65;;
43998;SDS011;51319;52.162;5.302;2023-07-31T02:06:48;53.83;;;13.57;;
43998;SDS011;51319;52.162;5.302;2023-07-31T02:09:16;48.03;;;12.50;;
43998;SDS011;51319;52.162;5.302;2023-07-31T02:11:43;53.75;;;12.05;;
43998;SDS011;51319;52.162;5.302;2023-07-31T02:14:09;58.55;;;12.75;;
43998;SDS011;51319;52.162;5.302;2023-07-31T02:16:38;51.97;;;12.07;;
43998;SDS011;51319;52.162;5.302;2023-07-31T02:19:05;43.42;;;12.52;;
43998;SDS011;51319;52.162;5.302;2023-07-31T02:21:32;54.15;;;12.45;;
43998;SDS011;51319;52.162;5.302;2023-07-31T02:23:59;67.60;;;14.15;;
43998;SDS011;51319;52.162;5.302;2023-07-31T02:26:26;54.40;;;13.52;;
43998;SDS011;51319;52.162;5.302;2023-07-31T02:28:53;60.78;;;13.45;;
43998;SDS011;51319;52.162;5.302;2023-07-31T02:31:19;62.28;;;13.30;;
43998;SDS011;51319;52.162;5.302;2023-07-31T02:33:48;61.72;;;13.23;;
43998;SDS011;51319;52.162;5.302;2023-07-31T02:36:15;54.58;;;12.30;;
43998;SDS011;51319;52.162;5.302;2023-07-31T02:38:42;63.22;;;13.55;;
43998;SDS011;51319;52.162;5.302;2023-07-31T02:41:09;64.28;;;13.02;;
43998;SDS011;51319;52.162;5.302;2023-07-31T02:43:36;55.58;;;12.98;;
43998;SDS011;51319;52.162;5.302;2023-07-31T02:46:02;49.92;;;12.95;;
43998;SDS011;51319;52.162;5.302;2023-07-31T02:48:29;58.95;;;12.63;;
43998;SDS011;51319;52.162;5.302;2023-07-31T02:50:56;57.00;;;13.15;;
43998;SDS011;51319;52.162;5.302;2023-07-31T02:53:23;52.75;;;13.25;;
43998;SDS011;51319;52.162;5.302;2023-07-31T02:55:50;61.17;;;13.68;;
43998;SDS011;51319;52.162;5.302;2023-07-31T02:58:17;47.95;;;12.40;;
43998;SDS011;51319;52.162;5.302;2023-07-31T03:00:44;63.13;;;13.85;;
43998;SDS011;51319;52.162;5.302;2023-07-31T03:03:11;61.22;;;13.57;;
43998;SDS011;51319;52.162;5.302;2023-07-31T03:05:38;65.22;;;15.50;;
43998;SDS011;51319;52.162;5.302;2023-07-31T03:08:05;60.83;;;13.85;;
43998;SDS011;51319;52.162;5.302;2023-07-31T03:10:32;61.20;;;15.27;;
43998;SDS011;51319;52.162;5.302;2023-07-31T03:12:59;64.32;;;15.27;;
43998;SDS011;51319;52.162;5.302;2023-07-31T03:15:25;68.53;;;15.13;;
43998;SDS011;51319;52.162;5.302;2023-07-31T03:17:52;70.82;;;15.40;;
43998;SDS011;51319;52.162;5.302;2023-07-31T03:20:19;61.47;;;14.70;;
43998;SDS011;51319;52.162;5.302;2023-07-31T03:22:46;59.78;;;14.52;;
43998;SDS011;51319;52.162;5.302;2023-07-31T03:25:13;59.60;;;13.30;;
43998;SDS011;51319;52.162;5.302;2023-07-31T03:27:40;72.28;;;15.07;;
43998;SDS011;51319;52.162;5.302;2023-07-31T03:30:07;75.63;;;16.95;;
43998;SDS011;51319;52.162;5.302;2023-07-31T03:32:34;59.45;;;15.13;;
43998;SDS011;51319;52.162;5.302;2023-07-31T03:35:01;77.93;;;16.40;;
43998;SDS011;51319;52.162;5.302;2023-07-31T03:37:29;63.00;;;15.23;;
43998;SDS011;51319;52.162;5.302;2023-07-31T03:39:55;64.18;;;15.18;;
43998;SDS011;51319;52.162;5.302;2023-07-31T03:42:23;77.90;;;15.38;;
43998;SDS011;51319;52.162;5.302;2023-07-31T03:44:51;64.97;;;14.57;;
43998;SDS011;51319;52.162;5.302;2023-07-31T03:47:18;60.67;;;15.20;;
43998;SDS011;51319;52.162;5.302;2023-07-31T03:49:45;56.05;;;13.90;;
43998;SDS011;51319;52.162;5.302;2023-07-31T03:52:12;56.78;;;15.13;;
43998;SDS011;51319;52.162;5.302;2023-07-31T03:54:39;64.18;;;14.77;;
43998;SDS011;51319;52.162;5.302;2023-07-31T03:57:05;54.90;;;13.38;;
43998;SDS011;51319;52.162;5.302;2023-07-31T03:59:32;61.88;;;14.77;;
43998;SDS011;51319;52.162;5.302;2023-07-31T04:01:59;65.57;;;14.68;;
43998;SDS011;51319;52.162;5.302;2023-07-31T04:04:26;56.67;;;13.95;;
43998;SDS011;51319;52.162;5.302;2023-07-31T04:06:53;59.60;;;13.93;;
43998;SDS011;51319;52.162;5.302;2023-07-31T04:09:20;55.78;;;13.32;;
43998;SDS011;51319;52.162;5.302;2023-07-31T04:11:47;57.97;;;13.60;;
43998;SDS011;51319;52.162;5.302;2023-07-31T04:14:13;62.30;;;13.43;;
43998;SDS011;51319;52.162;5.302;2023-07-31T04:16:40;52.88;;;12.93;;
43998;SDS011;51319;52.162;5.302;2023-07-31T04:19:08;49.80;;;12.98;;
43998;SDS011;51319;52.162;5.302;2023-07-31T04:21:36;54.03;;;13.80;;
43998;SDS011;51319;52.162;5.302;2023-07-31T04:24:03;49.47;;;12.98;;
43998;SDS011;51319;52.162;5.302;2023-07-31T04:26:30;60.35;;;13.98;;
43998;SDS011;51319;52.162;5.302;2023-07-31T04:28:57;55.83;;;14.40;;
43998;SDS011;51319;52.162;5.302;2023-07-31T04:31:25;49.10;;;12.73;;
43998;SDS011;51319;52.162;5.302;2023-07-31T04:33:53;58.35;;;13.85;;
43998;SDS011;51319;52.162;5.302;2023-07-31T04:36:19;51.03;;;13.35;;
43998;SDS011;51319;52.162;5.302;2023-07-31T04:38:46;39.28;;;12.38;;
43998;SDS011;51319;52.162;5.302;2023-07-31T04:41:13;37.33;;;12.93;;
43998;SDS011;51319;52.162;5.302;2023-07-31T04:43:40;42.80;;;12.43;;
43998;SDS011;51319;52.162;5.302;2023-07-31T04:46:07;45.38;;;12.70;;
43998;SDS011;51319;52.162;5.302;2023-07-31T04:48:34;43.30;;;12.35;;
43998;SDS011;51319;52.162;5.302;2023-07-31T04:51:01;48.72;;;13.30;;
43998;SDS011;51319;52.162;5.302;2023-07-31T04:53:28;39.25;;;11.55;;
43998;SDS011;51319;52.162;5.302;2023-07-31T04:55:55;40.42;;;11.77;;
43998;SDS011;51319;52.162;5.302;2023-07-31T04:58:22;36.75;;;12.23;;
43998;SDS011;51319;52.162;5.302;2023-07-31T05:00:49;45.65;;;12.05;;
43998;SDS011;51319;52.162;5.302;2023-07-31T05:03:16;43.65;;;11.85;;
43998;SDS011;51319;52.162;5.302;2023-07-31T05:05:43;36.15;;;12.40;;
43998;SDS011;51319;52.162;5.302;2023-07-31T05:08:10;44.08;;;12.57;;
43998;SDS011;51319;52.162;5.302;2023-07-31T05:10:37;40.17;;;10.98;;
43998;SDS011;51319;52.162;5.302;2023-07-31T05:13:04;32.10;;;10.30;;
43998;SDS011;51319;52.162;5.302;2023-07-31T05:15:31;32.90;;;10.52;;
43998;SDS011;51319;52.162;5.302;2023-07-31T05:17:58;36.28;;;10.70;;
43998;SDS011;51319;52.162;5.302;2023-07-31T05:20:25;34.60;;;11.13;;
43998;SDS011;51319;52.162;5.302;2023-07-31T05:22:53;36.08;;;10.48;;
43998;SDS011;51319;52.162;5.302;2023-07-31T05:25:20;32.75;;;8.32;;
43998;SDS011;51319;52.162;5.302;2023-07-31T05:27:47;24.52;;;8.65;;
43998;SDS011;51319;52.162;5.302;2023-07-31T05:30:14;30.83;;;8.07;;
43998;SDS011;51319;52.162;5.302;2023-07-31T05:32:41;28.83;;;8.27;;
43998;SDS011;51319;52.162;5.302;2023-07-31T05:35:08;26.95;;;7.57;;
43998;SDS011;51319;52.162;5.302;2023-07-31T05:37:35;21.25;;;7.43;;
43998;SDS011;51319;52.162;5.302;2023-07-31T05:40:02;24.95;;;7.45;;
43998;SDS011;51319;52.162;5.302;2023-07-31T05:42:29;25.65;;;7.28;;
43998;SDS011;51319;52.162;5.302;2023-07-31T05:44:56;29.15;;;8.32;;
43998;SDS011;51319;52.162;5.302;2023-07-31T05:47:23;18.55;;;7.65;;
43998;SDS011;51319;52.162;5.302;2023-07-31T05:49:50;24.23;;;7.55;;
43998;SDS011;51319;52.162;5.302;2023-07-31T05:52:20;31.75;;;9.15;;
43998;SDS011;51319;52.162;5.302;2023-07-31T05:54:46;19.25;;;7.32;;
43998;SDS011;51319;52.162;5.302;2023-07-31T05:57:13;22.85;;;7.72;;
43998;SDS011;51319;52.162;5.302;2023-07-31T05:59:40;21.40;;;7.45;;
43998;SDS011;51319;52.162;5.302;2023-07-31T06:02:07;21.67;;;8.63;;
43998;SDS011;51319;52.162;5.302;2023-07-31T06:04:34;23.05;;;8.65;;
43998;SDS011;51319;52.162;5.302;2023-07-31T06:07:01;28.58;;;10.02;;
43998;SDS011;51319;52.162;5.302;2023-07-31T06:09:29;24.42;;;8.32;;
43998;SDS011;51319;52.162;5.302;2023-07-31T06:11:56;26.65;;;9.73;;
43998;SDS011;51319;52.162;5.302;2023-07-31T06:14:23;23.38;;;9.07;;
43998;SDS011;51319;52.162;5.302;2023-07-31T06:16:53;48.47;;;21.45;;
43998;SDS011;51319;52.162;5.302;2023-07-31T06:19:20;22.63;;;8.40;;
43998;SDS011;51319;52.162;5.302;2023-07-31T06:21:47;19.73;;;8.00;;
43998;SDS011;51319;52.162;5.302;2023-07-31T06:24:14;25.35;;;8.55;;
43998;SDS011;51319;52.162;5.302;2023-07-31T06:26:45;49.42;;;21.23;;
43998;SDS011;51319;52.162;5.302;2023-07-31T06:29:12;24.92;;;9.60;;
43998;SDS011;51319;52.162;5.302;2023-07-31T06:31:40;24.80;;;7.55;;
43998;SDS011;51319;52.162;5.302;2023-07-31T06:34:09;24.00;;;8.43;;
43998;SDS011;51319;52.162;5.302;2023-07-31T06:36:36;24.10;;;8.48;;
43998;SDS011;51319;52.162;5.302;2023-07-31T06:39:04;22.45;;;7.95;;
43998;SDS011;51319;52.162;5.302;2023-07-31T06:41:31;22.48;;;7.88;;
43998;SDS011;51319;52.162;5.302;2023-07-31T06:43:58;18.98;;;7.75;;
43998;SDS011;51319;52.162;5.302;2023-07-31T06:46:24;14.70;;;6.47;;
43998;SDS011;51319;52.162;5.302;2023-07-31T06:48:51;17.83;;;6.93;;
43998;SDS011;51319;52.162;5.302;2023-07-31T06:51:18;20.38;;;7.10;;
43998;SDS011;51319;52.162;5.302;2023-07-31T06:53:45;15.65;;;6.53;;
43998;SDS011;51319;52.162;5.302;2023-07-31T06:56:12;14.77;;;6.15;;
43998;SDS011;51319;52.162;5.302;2023-07-31T06:58:39;13.65;;;5.75;;
43998;SDS011;51319;52.162;5.302;2023-07-31T07:01:06;13.07;;;5.72;;
43998;SDS011;51319;52.162;5.302;2023-07-31T07:03:33;15.82;;;5.80;;
43998;SDS011;51319;52.162;5.302;2023-07-31T07:06:01;11.18;;;5.35;;
43998;SDS011;51319;52.162;5.302;2023-07-31T07:08:28;16.52;;;5.65;;
43998;SDS011;51319;52.162;5.302;2023-07-31T07:10:55;14.95;;;5.25;;
43998;SDS011;51319;52.162;5.302;2023-07-31T07:13:22;13.43;;;4.97;;
43998;SDS011;51319;52.162;5.302;2023-07-31T07:15:49;14.45;;;5.28;;
43998;SDS011;51319;52.162;5.302;2023-07-31T07:18:17;11.35;;;5.20;;
43998;SDS011;51319;52.162;5.302;2023-07-31T07:20:54;14.98;;;5.53;;
43998;SDS011;51319;52.162;5.302;2023-07-31T07:23:21;12.75;;;5.63;;
43998;SDS011;51319;52.162;5.302;2023-07-31T07:25:48;8.75;;;4.60;;
43998;SDS011;51319;52.162;5.302;2023-07-31T07:28:15;10.98;;;4.80;;
43998;SDS011;51319;52.162;5.302;2023-07-31T07:30:41;13.90;;;4.82;;
43998;SDS011;51319;52.162;5.302;2023-07-31T07:33:08;11.38;;;4.20;;
43998;SDS011;51319;52.162;5.302;2023-07-31T07:35:35;12.02;;;4.53;;
43998;SDS011;51319;52.162;5.302;2023-07-31T07:38:02;9.93;;;4.13;;
43998;SDS011;51319;52.162;5.302;2023-07-31T07:40:30;9.43;;;4.03;;
43998;SDS011;51319;52.162;5.302;2023-07-31T07:42:57;12.95;;;4.13;;
43998;SDS011;51319;52.162;5.302;2023-07-31T07:45:24;11.20;;;4.00;;
43998;SDS011;51319;52.162;5.302;2023-07-31T07:47:51;9.55;;;4.13;;
43998;SDS011;51319;52.162;5.302;2023-07-31T07:50:18;8.45;;;3.60;;
43998;SDS011;51319;52.162;5.302;2023-07-31T07:52:45;5.70;;;3.30;;
43998;SDS011;51319;52.162;5.302;2023-07-31T07:55:12;5.47;;;3.00;;
43998;SDS011;51319;52.162;5.302;2023-07-31T07:57:38;5.45;;;3.33;;
43998;SDS011;51319;52.162;5.302;2023-07-31T08:00:05;6.18;;;3.70;;
43998;SDS011;51319;52.162;5.302;2023-07-31T08:02:33;6.38;;;3.30;;
43998;SDS011;51319;52.162;5.302;2023-07-31T08:05:00;6.72;;;3.22;;
43998;SDS011;51319;52.162;5.302;2023-07-31T08:07:27;5.65;;;3.00;;
43998;SDS011;51319;52.162;5.302;2023-07-31T08:09:54;5.65;;;3.10;;
43998;SDS011;51319;52.162;5.302;2023-07-31T08:12:20;5.10;;;2.88;;
43998;SDS011;51319;52.162;5.302;2023-07-31T08:14:47;7.97;;;2.70;;
43998;SDS011;51319;52.162;5.302;2023-07-31T08:17:14;3.78;;;2.33;;
43998;SDS011;51319;52.162;5.302;2023-07-31T08:19:41;6.40;;;2.00;;
43998;SDS011;51319;52.162;5.302;2023-07-31T08:22:08;6.45;;;2.58;;
43998;SDS011;51319;52.162;5.302;2023-07-31T08:24:35;7.28;;;2.88;;
43998;SDS011;51319;52.162;5.302;2023-07-31T08:27:02;5.25;;;2.47;;
43998;SDS011;51319;52.162;5.302;2023-07-31T08:29:29;4.10;;;2.10;;
43998;SDS011;51319;52.162;5.302;2023-07-31T08:31:56;4.78;;;2.30;;
43998;SDS011;51319;52.162;5.302;2023-07-31T08:34:23;5.15;;;2.08;;
43998;SDS011;51319;52.162;5.302;2023-07-31T08:36:50;2.85;;;2.13;;
43998;SDS011;51319;52.162;5.302;2023-07-31T08:39:17;3.58;;;2.00;;
43998;SDS011;51319;52.162;5.302;2023-07-31T08:41:43;5.03;;;2.78;;
43998;SDS011;51319;52.162;5.302;2023-07-31T08:44:10;3.65;;;1.83;;
43998;SDS011;51319;52.162;5.302;2023-07-31T08:46:40;4.07;;;2.30;;
43998;SDS011;51319;52.162;5.302;2023-07-31T08:49:08;1.48;;;1.30;;
43998;SDS011;51319;52.162;5.302;2023-07-31T08:51:36;5.90;;;1.83;;
43998;SDS011;51319;52.162;5.302;2023-07-31T08:54:03;4.70;;;1.67;;
43998;SDS011;51319;52.162;5.302;2023-07-31T08:56:31;6.05;;;1.83;;
43998;SDS011;51319;52.162;5.302;2023-07-31T08:58:59;1.90;;;1.70;;
43998;SDS011;51319;52.162;5.302;2023-07-31T09:01:31;3.50;;;1.23;;
43998;SDS011;51319;52.162;5.302;2023-07-31T09:04:04;2.42;;;1.30;;
43998;SDS011;51319;52.162;5.302;2023-07-31T09:06:31;5.22;;;1.50;;
43998;SDS011;51319;52.162;5.302;2023-07-31T09:09:00;3.00;;;1.60;;
43998;SDS011;51319;52.162;5.302;2023-07-31T09:11:26;2.33;;;1.50;;
43998;SDS011;51319;52.162;5.302;2023-07-31T09:13:54;4.22;;;1.40;;
43998;SDS011;51319;52.162;5.302;2023-07-31T09:16:27;3.60;;;1.60;;
43998;SDS011;51319;52.162;5.302;2023-07-31T09:18:57;1.90;;;1.30;;
43998;SDS011;51319;52.162;5.302;2023-07-31T09:21:25;1.70;;;1.60;;
43998;SDS011;51319;52.162;5.302;2023-07-31T09:23:54;2.92;;;1.70;;
43998;SDS011;51319;52.162;5.302;2023-07-31T09:26:34;2.55;;;1.40;;
43998;SDS011;51319;52.162;5.302;2023-07-31T09:29:07;3.22;;;1.23;;
43998;SDS011;51319;52.162;5.302;2023-07-31T09:31:45;1.40;;;1.30;;
43998;SDS011;51319;52.162;5.302;2023-07-31T09:34:12;3.20;;;1.50;;
43998;SDS011;51319;52.162;5.302;2023-07-31T09:36:44;1.30;;;1.20;;
43998;SDS011;51319;52.162;5.302;2023-07-31T09:39:13;1.73;;;1.10;;
43998;SDS011;51319;52.162;5.302;2023-07-31T09:41:43;1.55;;;1.17;;
43998;SDS011;51319;52.162;5.302;2023-07-31T09:44:13;2.60;;;1.48;;
43998;SDS011;51319;52.162;5.302;2023-07-31T09:46:40;3.50;;;1.50;;
43998;SDS011;51319;52.162;5.302;2023-07-31T09:49:08;1.35;;;1.20;;
43998;SDS011;51319;52.162;5.302;2023-07-31T09:51:39;1.60;;;1.38;;
43998;SDS011;51319;52.162;5.302;2023-07-31T09:54:11;2.53;;;1.48;;
43998;SDS011;51319;52.162;5.302;2023-07-31T09:56:41;2.60;;;1.50;;
43998;SDS011;51319;52.162;5.302;2023-07-31T09:59:15;2.08;;;1.00;;
43998;SDS011;51319;52.162;5.302;2023-07-31T10:01:48;2.15;;;1.30;;
43998;SDS011;51319;52.162;5.302;2023-07-31T10:04:16;1.40;;;1.30;;
43998;SDS011;51319;52.162;5.302;2023-07-31T10:06:47;1.48;;;1.27;;
43998;SDS011;51319;52.162;5.302;2023-07-31T10:09:19;1.35;;;1.25;;
43998;SDS011;51319;52.162;5.302;2023-07-31T10:11:57;1.83;;;1.43;;
43998;SDS011;51319;52.162;5.302;2023-07-31T10:14:26;2.95;;;2.35;;
43998;SDS011;51319;52.162;5.302;2023-07-31T10:16:55;2.85;;;1.60;;
43998;SDS011;51319;52.162;5.302;2023-07-31T10:19:24;2.00;;;1.40;;
43998;SDS011;51319;52.162;5.302;2023-07-31T10:21:53;2.00;;;1.80;;
43998;SDS011;51319;52.162;5.302;2023-07-31T10:24:22;3.85;;;1.48;;
43998;SDS011;51319;52.162;5.302;2023-07-31T10:26:51;3.47;;;1.70;;
43998;SDS011;51319;52.162;5.302;2023-07-31T10:29:19;3.97;;;2.53;;
43998;SDS011;51319;52.162;5.302;2023-07-31T10:31:48;2.10;;;1.90;;
43998;SDS011;51319;52.162;5.302;2023-07-31T10:34:16;2.30;;;2.10;;
43998;SDS011;51319;52.162;5.302;2023-07-31T10:36:43;2.92;;;2.53;;
43998;SDS011;51319;52.162;5.302;2023-07-31T10:42:00;3.75;;;2.67;;
43998;SDS011;51319;52.162;5.302;2023-07-31T10:44:48;6.15;;;3.22;;
43998;SDS011;51319;52.162;5.302;2023-07-31T10:47:15;5.97;;;3.70;;
43998;SDS011;51319;52.162;5.302;2023-07-31T10:49:46;3.50;;;2.45;;
43998;SDS011;51319;52.162;5.302;2023-07-31T10:52:13;5.07;;;3.22;;
43998;SDS011;51319;52.162;5.302;2023-07-31T10:54:45;4.82;;;3.60;;
43998;SDS011;51319;52.162;5.302;2023-07-31T10:57:19;5.22;;;3.38;;
43998;SDS011;51319;52.162;5.302;2023-07-31T10:59:47;10.20;;;3.47;;
43998;SDS011;51319;52.162;5.302;2023-07-31T11:02:25;3.17;;;2.78;;
43998;SDS011;51319;52.162;5.302;2023-07-31T11:05:06;5.32;;;3.40;;
43998;SDS011;51319;52.162;5.302;2023-07-31T11:07:47;4.35;;;3.53;;
43998;SDS011;51319;52.162;5.302;2023-07-31T11:10:17;7.65;;;3.35;;
43998;SDS011;51319;52.162;5.302;2023-07-31T11:12:45;5.90;;;2.67;;
43998;SDS011;51319;52.162;5.302;2023-07-31T11:15:13;6.10;;;2.83;;
43998;SDS011;51319;52.162;5.302;2023-07-31T11:17:40;4.30;;;2.90;;
43998;SDS011;51319;52.162;5.302;2023-07-31T11:20:08;3.83;;;3.00;;
43998;SDS011;51319;52.162;5.302;2023-07-31T11:22:35;3.97;;;2.65;;
43998;SDS011;51319;52.162;5.302;2023-07-31T11:25:03;7.20;;;2.30;;
43998;SDS011;51319;52.162;5.302;2023-07-31T11:27:30;1.92;;;1.83;;
43998;SDS011;51319;52.162;5.302;2023-07-31T11:30:00;3.80;;;2.25;;
43998;SDS011;51319;52.162;5.302;2023-07-31T11:32:28;5.07;;;2.35;;
43998;SDS011;51319;52.162;5.302;2023-07-31T11:34:55;3.55;;;1.95;;
43998;SDS011;51319;52.162;5.302;2023-07-31T11:37:22;5.95;;;1.92;;
43998;SDS011;51319;52.162;5.302;2023-07-31T11:40:02;3.35;;;2.13;;
43998;SDS011;51319;52.162;5.302;2023-07-31T11:42:29;4.30;;;1.52;;
43998;SDS011;51319;52.162;5.302;2023-07-31T11:44:56;3.20;;;1.40;;
43998;SDS011;51319;52.162;5.302;2023-07-31T11:47:25;4.00;;;1.85;;
43998;SDS011;51319;52.162;5.302;2023-07-31T11:49:52;4.28;;;1.85;;
43998;SDS011;51319;52.162;5.302;2023-07-31T11:52:19;2.65;;;1.38;;
43998;SDS011;51319;52.162;5.302;2023-07-31T11:54:46;4.10;;;1.85;;
43998;SDS011;51319;52.162;5.302;2023-07-31T11:57:13;5.70;;;2.03;;
43998;SDS011;51319;52.162;5.302;2023-07-31T11:59:41;3.53;;;2.22;;
43998;SDS011;51319;52.162;5.302;2023-07-31T12:02:10;3.92;;;2.78;;
43998;SDS011;51319;52.162;5.302;2023-07-31T12:04:38;5.38;;;2.67;;
43998;SDS011;51319;52.162;5.302;2023-07-31T12:07:05;4.97;;;3.28;;
43998;SDS011;51319;52.162;5.302;2023-07-31T12:09:32;3.88;;;3.08;;
43998;SDS011;51319;52.162;5.302;2023-07-31T12:11:59;3.90;;;3.50;;
43998;SDS011;51319;52.162;5.302;2023-07-31T12:14:27;4.95;;;3.70;;
43998;SDS011;51319;52.162;5.302;2023-07-31T12:16:58;7.38;;;4.05;;
43998;SDS011;51319;52.162;5.302;2023-07-31T12:19:26;6.18;;;3.80;;
43998;SDS011;51319;52.162;5.302;2023-07-31T12:21:58;6.20;;;4.30;;
43998;SDS011;51319;52.162;5.302;2023-07-31T12:24:28;4.78;;;3.50;;
43998;SDS011;51319;52.162;5.302;2023-07-31T12:26:55;6.45;;;4.10;;
43998;SDS011;51319;52.162;5.302;2023-07-31T12:29:22;6.10;;;3.67;;
43998;SDS011;51319;52.162;5.302;2023-07-31T12:31:49;6.20;;;3.95;;
43998;SDS011;51319;52.162;5.302;2023-07-31T12:34:17;7.93;;;4.50;;
43998;SDS011;51319;52.162;5.302;2023-07-31T12:36:47;5.88;;;3.88;;
43998;SDS011;51319;52.162;5.302;2023-07-31T12:39:17;4.78;;;3.63;;
43998;SDS011;51319;52.162;5.302;2023-07-31T12:41:44;8.45;;;3.95;;
43998;SDS011;51319;52.162;5.302;2023-07-31T12:44:10;9.10;;;4.28;;
43998;SDS011;51319;52.162;5.302;2023-07-31T12:46:37;4.10;;;3.70;;
43998;SDS011;51319;52.162;5.302;2023-07-31T12:49:05;5.50;;;3.50;;
43998;SDS011;51319;52.162;5.302;2023-07-31T12:51:32;5.50;;;3.47;;
43998;SDS011;51319;52.162;5.302;2023-07-31T12:53:59;4.65;;;3.00;;
43998;SDS011;51319;52.162;5.302;2023-07-31T12:56:26;3.83;;;3.00;;
43998;SDS011;51319;52.162;5.302;2023-07-31T12:58:53;5.93;;;3.40;;
43998;SDS011;51319;52.162;5.302;2023-07-31T13:01:22;4.03;;;3.10;;
43998;SDS011;51319;52.162;5.302;2023-07-31T13:03:49;5.28;;;3.67;;
43998;SDS011;51319;52.162;5.302;2023-07-31T13:06:16;4.38;;;2.95;;
43998;SDS011;51319;52.162;5.302;2023-07-31T13:08:43;4.00;;;3.60;;
43998;SDS011;51319;52.162;5.302;2023-07-31T13:11:10;4.63;;;3.28;;
43998;SDS011;51319;52.162;5.302;2023-07-31T13:13:37;7.35;;;3.33;;
43998;SDS011;51319;52.162;5.302;2023-07-31T13:16:04;6.43;;;3.38;;
43998;SDS011;51319;52.162;5.302;2023-07-31T13:18:31;4.57;;;3.13;;
43998;SDS011;51319;52.162;5.302;2023-07-31T13:20:58;4.13;;;2.50;;
43998;SDS011;51319;52.162;5.302;2023-07-31T13:23:25;2.20;;;2.03;;
43998;SDS011;51319;52.162;5.302;2023-07-31T13:25:51;6.32;;;3.65;;
43998;SDS011;51319;52.162;5.302;2023-07-31T13:28:18;6.72;;;4.18;;
43998;SDS011;51319;52.162;5.302;2023-07-31T13:30:45;4.72;;;2.75;;
43998;SDS011;51319;52.162;5.302;2023-07-31T13:33:12;4.60;;;3.30;;
43998;SDS011;51319;52.162;5.302;2023-07-31T13:35:59;6.97;;;2.88;;
43998;SDS011;51319;52.162;5.302;2023-07-31T13:38:26;6.78;;;2.75;;
43998;SDS011;51319;52.162;5.302;2023-07-31T13:40:53;5.18;;;2.53;;
43998;SDS011;51319;52.162;5.302;2023-07-31T13:43:20;7.05;;;3.97;;
43998;SDS011;51319;52.162;5.302;2023-07-31T13:45:47;5.20;;;3.78;;
43998;SDS011;51319;52.162;5.302;2023-07-31T13:48:14;7.03;;;2.60;;
43998;SDS011;51319;52.162;5.302;2023-07-31T13:50:42;1.67;;;1.55;;
43998;SDS011;51319;52.162;5.302;2023-07-31T13:53:08;2.90;;;2.70;;
43998;SDS011;51319;52.162;5.302;2023-07-31T13:55:35;1.48;;;0.80;;
43998;SDS011;51319;52.162;5.302;2023-07-31T13:58:02;2.38;;;0.90;;
43998;SDS011;51319;52.162;5.302;2023-07-31T14:00:29;1.70;;;0.70;;
43998;SDS011;51319;52.162;5.302;2023-07-31T14:02:56;0.85;;;0.63;;
43998;SDS011;51319;52.162;5.302;2023-07-31T14:05:23;1.27;;;0.75;;
43998;SDS011;51319;52.162;5.302;2023-07-31T14:07:50;5.22;;;1.17;;
43998;SDS011;51319;52.162;5.302;2023-07-31T14:10:17;1.45;;;0.85;;
43998;SDS011;51319;52.162;5.302;2023-07-31T14:12:44;2.40;;;0.70;;
43998;SDS011;51319;52.162;5.302;2023-07-31T14:15:11;3.38;;;1.73;;
43998;SDS011;51319;52.162;5.302;2023-07-31T14:17:38;2.88;;;0.82;;
43998;SDS011;51319;52.162;5.302;2023-07-31T14:20:05;1.65;;;0.82;;
43998;SDS011;51319;52.162;5.302;2023-07-31T14:22:33;1.35;;;1.00;;
43998;SDS011;51319;52.162;5.302;2023-07-31T14:25:01;1.20;;;1.10;;
43998;SDS011;51319;52.162;5.302;2023-07-31T14:27:28;5.70;;;1.27;;
43998;SDS011;51319;52.162;5.302;2023-07-31T14:29:55;2.10;;;1.35;;
43998;SDS011;51319;52.162;5.302;2023-07-31T14:32:22;1.38;;;1.00;;
43998;SDS011;51319;52.162;5.302;2023-07-31T14:34:52;1.77;;;1.02;;
43998;SDS011;51319;52.162;5.302;2023-07-31T14:37:19;1.70;;;1.08;;
43998;SDS011;51319;52.162;5.302;2023-07-31T14:39:45;1.52;;;1.13;;
43998;SDS011;51319;52.162;5.302;2023-07-31T14:42:12;2.78;;;1.60;;
43998;SDS011;51319;52.162;5.302;2023-07-31T14:44:39;2.15;;;1.95;;
43998;SDS011;51319;52.162;5.302;2023-07-31T14:47:09;2.63;;;1.83;;
43998;SDS011;51319;52.162;5.302;2023-07-31T14:49:38;2.53;;;2.33;;
43998;SDS011;51319;52.162;5.302;2023-07-31T14:52:06;5.65;;;2.67;;